createdAt,value
2018-08-06T05:03:23.328Z,22.6
2018-08-06T05:04:13.411Z,22.6
2018-08-06T05:05:03.214Z,22.6
2018-08-06T05:05:52.429Z,22.6
2018-08-06T05:06:43.031Z,22.6
2018-08-06T05:07:33.088Z,22.6
2018-08-06T05:08:23.396Z,22.6
2018-08-06T05:09:13.747Z,22.7
2018-08-06T05:10:03.891Z,22.7
2018-08-06T05:10:53.631Z,22.7
2018-08-06T05:11:43.924Z,22.7
2018-08-06T05:12:33.488Z,22.7
2018-08-06T05:13:23.636Z,22.8
2018-08-06T05:14:13.689Z,22.8
2018-08-06T05:15:03.674Z,22.8
2018-08-06T05:15:54.335Z,22.7
2018-08-06T05:16:44.099Z,22.7
2018-08-06T05:17:34.418Z,22.8
2018-08-06T05:18:24.197Z,22.8
2018-08-06T05:19:13.983Z,22.8
2018-08-06T05:20:04.380Z,22.8
2018-08-06T05:20:54.386Z,22.8
2018-08-06T05:21:43.955Z,22.8
2018-08-06T05:22:34.863Z,22.9
2018-08-06T05:23:24.129Z,22.9
2018-08-06T05:24:14.179Z,22.9
2018-08-06T05:25:03.984Z,22.9
2018-08-06T05:25:53.463Z,22.9
2018-08-06T05:26:44.077Z,22.9
2018-08-06T05:27:34.432Z,22.9
2018-08-06T05:28:24.792Z,22.9
2018-08-06T05:29:13.969Z,22.9
2018-08-06T05:30:05.119Z,22.9
2018-08-06T05:30:54.318Z,22.9
2018-08-06T05:31:45.247Z,22.9
2018-08-06T05:32:35.310Z,22.9
2018-08-06T05:33:24.785Z,23
2018-08-06T05:34:15.659Z,22.9
2018-08-06T05:35:05.568Z,22.9
2018-08-06T05:35:55.805Z,22.9
2018-08-06T05:36:44.893Z,22.8
2018-08-06T05:37:35.376Z,22.8
2018-08-06T05:38:25.956Z,22.8
2018-08-06T05:39:15.594Z,22.8
2018-08-06T05:40:07.833Z,22.7
2018-08-06T05:40:56.161Z,22.7
2018-08-06T05:41:45.480Z,22.7
2018-08-06T05:42:36.381Z,22.6
2018-08-06T05:43:25.646Z,22.6
2018-08-06T05:44:16.465Z,22.7
2018-08-06T05:45:06.502Z,22.7
2018-08-06T05:45:55.986Z,22.7
2018-08-06T05:46:46.326Z,22.8
2018-08-06T05:47:36.666Z,22.8
2018-08-06T05:48:27.649Z,22.8
2018-08-06T05:49:16.618Z,22.8
2018-08-06T05:50:06.916Z,22.9
2018-08-06T05:50:56.152Z,22.9
2018-08-06T05:51:45.943Z,22.9
2018-08-06T05:52:37.117Z,22.9
2018-08-06T05:53:26.629Z,22.9
2018-08-06T05:54:17.206Z,22.9
2018-08-06T05:55:06.725Z,23
2018-08-06T05:55:56.783Z,23
2018-08-06T05:56:47.138Z,23
2018-08-06T05:57:36.912Z,23
2018-08-06T05:58:27.659Z,23.1
2018-08-06T05:59:17.310Z,23.1
2018-08-06T06:00:07.406Z,23.1
2018-08-06T06:00:57.504Z,23.1
2018-08-06T06:01:47.603Z,23.1
2018-08-06T06:02:37.434Z,23.1
2018-08-06T06:03:28.636Z,23.1
2018-08-06T06:04:17.210Z,23.1
2018-08-06T06:05:07.263Z,23.1
2018-08-06T06:05:58.153Z,23.1
2018-08-06T06:06:48.310Z,23.1
2018-08-06T06:07:38.129Z,23.2
2018-08-06T06:08:28.170Z,23.2
2018-08-06T06:09:18.187Z,23.2
2018-08-06T06:10:08.265Z,23.2
2018-08-06T06:10:58.307Z,23.1
2018-08-06T06:11:48.629Z,23.2
2018-08-06T06:12:38.655Z,23.1
2018-08-06T06:13:27.982Z,23.1
2018-08-06T06:14:17.940Z,23.1
2018-08-06T06:15:09.000Z,23.1
2018-08-06T06:15:58.689Z,23.1
2018-08-06T06:16:48.047Z,23.1
2018-08-06T06:17:37.498Z,23.1
2018-08-06T06:18:29.111Z,23.2
2018-08-06T06:19:20.543Z,23.2
2018-08-06T06:20:08.691Z,23.2
2018-08-06T06:20:59.102Z,23.2
2018-08-06T06:21:49.490Z,23.3
2018-08-06T06:22:38.914Z,23.3
2018-08-06T06:23:29.537Z,23.3
2018-08-06T06:24:19.628Z,23.3
2018-08-06T06:25:09.187Z,23.3
2018-08-06T06:26:00.267Z,23.3
2018-08-06T06:26:49.249Z,23.3
2018-08-06T06:27:39.626Z,23.3
2018-08-06T06:28:30.189Z,23.3
2018-08-06T06:29:19.751Z,23.3
2018-08-06T06:30:10.091Z,23.3
2018-08-06T06:30:59.859Z,23.3
2018-08-06T06:31:49.361Z,23.3
2018-08-06T06:32:39.694Z,23.3
2018-08-06T06:33:30.083Z,23.3
2018-08-06T06:34:19.293Z,23.4
2018-08-06T06:35:10.536Z,23.4
2018-08-06T06:35:59.746Z,23.4
2018-08-06T06:36:50.330Z,23.4
2018-08-06T06:37:39.570Z,23.4
2018-08-06T06:38:30.410Z,23.4
2018-08-06T06:39:19.889Z,23.4
2018-08-06T06:40:10.618Z,23.4
2018-08-06T06:41:00.400Z,23.4
2018-08-06T06:41:51.814Z,23.4
2018-08-06T06:42:40.814Z,23.4
2018-08-06T06:43:31.154Z,23.4
2018-08-06T06:44:20.686Z,23.4
2018-08-06T06:45:11.229Z,23.4
2018-08-06T06:46:00.744Z,23.4
2018-08-06T06:46:51.400Z,23.4
2018-08-06T06:47:41.153Z,23.4
2018-08-06T06:48:31.460Z,23.4
2018-08-06T06:49:22.051Z,23.4
2018-08-06T06:50:10.963Z,23.4
2018-08-06T06:51:01.720Z,23.4
2018-08-06T06:51:51.679Z,23.4
2018-08-06T06:52:41.218Z,23.4
2018-08-06T06:53:31.052Z,23.4
2018-08-06T06:54:21.640Z,23.4
2018-08-06T06:55:11.823Z,23.4
2018-08-06T06:56:01.783Z,23.4
2018-08-06T06:56:51.318Z,23.4
2018-08-06T06:57:41.689Z,23.4
2018-08-06T06:58:31.648Z,23.4
2018-08-06T06:59:22.328Z,23.4
2018-08-06T07:00:12.711Z,23.4
2018-08-06T07:01:01.690Z,23.4
2018-08-06T07:01:52.015Z,23.4
2018-08-06T07:02:42.017Z,23.4
2018-08-06T07:03:32.112Z,23.4
2018-08-06T07:04:22.440Z,23.4
2018-08-06T07:05:12.807Z,23.5
2018-08-06T07:06:01.979Z,23.5
2018-08-06T07:06:52.058Z,23.4
2018-08-06T07:07:42.696Z,23.5
2018-08-06T07:08:32.740Z,23.4
2018-08-06T07:09:22.294Z,23.5
2018-08-06T07:10:12.588Z,23.5
2018-08-06T07:11:02.937Z,23.5
2018-08-06T07:11:53.263Z,23.5
2018-08-06T07:12:41.512Z,23.5
2018-08-06T07:13:32.869Z,23.5
2018-08-06T07:14:22.547Z,23.5
2018-08-06T07:15:12.714Z,23.5
2018-08-06T07:16:02.775Z,23.5
2018-08-06T07:16:52.805Z,23.5
2018-08-06T07:17:43.493Z,23.5
2018-08-06T07:18:33.251Z,23.5
2018-08-06T07:19:22.990Z,23.5
2018-08-06T07:20:13.998Z,23.6
2018-08-06T07:21:03.511Z,23.5
2018-08-06T07:21:53.035Z,23.5
2018-08-06T07:22:43.960Z,23.5
2018-08-06T07:23:33.721Z,23.5
2018-08-06T07:24:23.971Z,23.6
2018-08-06T07:25:13.005Z,23.5
2018-08-06T07:26:05.445Z,23.6
2018-08-06T07:26:54.373Z,23.6
2018-08-06T07:27:44.491Z,23.6
2018-08-06T07:28:33.435Z,23.6
2018-08-06T07:29:23.494Z,23.6
2018-08-06T07:30:13.371Z,23.6
2018-08-06T07:31:04.207Z,23.6
2018-08-06T07:31:53.998Z,23.6
2018-08-06T07:32:44.279Z,23.6
2018-08-06T07:33:34.918Z,23.6
2018-08-06T07:34:23.884Z,23.6
2018-08-06T07:35:13.925Z,23.6
2018-08-06T07:36:04.578Z,23.6
2018-08-06T07:36:54.628Z,23.6
2018-08-06T07:37:44.508Z,23.6
2018-08-06T07:38:35.316Z,23.6
2018-08-06T07:39:25.040Z,23.6
2018-08-06T07:40:14.986Z,23.6
2018-08-06T07:41:05.472Z,23.6
2018-08-06T07:41:55.034Z,23.6
2018-08-06T07:42:45.391Z,23.6
2018-08-06T07:43:34.637Z,23.6
2018-08-06T07:44:25.789Z,23.6
2018-08-06T07:45:15.768Z,23.6
2018-08-06T07:46:05.903Z,23.6
2018-08-06T07:46:55.526Z,23.6
2018-08-06T07:47:45.831Z,23.6
2018-08-06T07:48:36.059Z,23.6
2018-08-06T07:49:26.619Z,23.6
2018-08-06T07:50:15.710Z,23.6
2018-08-06T07:51:05.577Z,23.6
2018-08-06T07:51:56.400Z,23.6
2018-08-06T07:52:46.097Z,23.6
2018-08-06T07:53:35.148Z,23.6
2018-08-06T07:54:25.705Z,23.6
2018-08-06T07:55:16.033Z,23.6
2018-08-06T07:56:06.627Z,23.6
2018-08-06T07:56:56.502Z,23.6
2018-08-06T07:57:46.148Z,23.6
2018-08-06T07:58:36.805Z,23.6
2018-08-06T07:59:26.147Z,23.6
2018-08-06T08:00:16.801Z,23.6
2018-08-06T08:01:06.474Z,23.6
2018-08-06T08:01:56.060Z,23.6
2018-08-06T08:02:47.136Z,23.6
2018-08-06T08:03:36.951Z,23.6
2018-08-06T08:04:26.305Z,23.6
2018-08-06T08:05:17.332Z,23.6
2018-08-06T08:06:06.590Z,23.6
2018-08-06T08:06:56.935Z,23.7
2018-08-06T08:07:47.299Z,23.6
2018-08-06T08:08:36.738Z,23.6
2018-08-06T08:09:27.409Z,23.7
2018-08-06T08:10:17.256Z,23.6
2018-08-06T08:11:07.857Z,23.6
2018-08-06T08:11:58.555Z,23.6
2018-08-06T08:12:46.645Z,23.6
2018-08-06T08:13:37.717Z,23.6
2018-08-06T08:14:28.049Z,23.6
2018-08-06T08:15:17.669Z,23.7
2018-08-06T08:16:07.367Z,23.7
2018-08-06T08:16:57.472Z,23.6
2018-08-06T08:17:47.261Z,23.7
2018-08-06T08:18:38.119Z,23.7
2018-08-06T08:19:28.468Z,23.7
2018-08-06T08:20:21.736Z,23.7
2018-08-06T08:31:45.455Z,23.7
2018-08-06T08:32:20.507Z,23.7
2018-08-06T08:33:10.850Z,23.7
2018-08-06T08:34:00.485Z,23.7
2018-08-06T08:34:50.428Z,23.7
2018-08-06T08:35:40.509Z,23.7
2018-08-06T08:36:31.144Z,23.8
2018-08-06T08:37:20.923Z,23.7
2018-08-06T08:38:11.229Z,23.7
2018-08-06T08:39:01.369Z,23.7
2018-08-06T08:39:51.529Z,23.7
2018-08-06T08:40:41.207Z,23.7
2018-08-06T08:41:30.965Z,23.7
2018-08-06T08:42:21.459Z,23.8
2018-08-06T08:43:11.682Z,23.7
2018-08-06T08:44:01.148Z,23.8
2018-08-06T08:44:51.793Z,23.8
2018-08-06T08:45:42.440Z,23.8
2018-08-06T08:46:31.405Z,23.8
2018-08-06T08:47:21.687Z,23.7
2018-08-06T08:48:11.288Z,23.8
2018-08-06T08:49:01.354Z,23.8
2018-08-06T08:49:51.642Z,23.8
2018-08-06T08:50:41.663Z,23.7
2018-08-06T08:51:32.245Z,23.8
2018-08-06T08:52:22.799Z,23.8
2018-08-06T08:53:12.483Z,23.8
2018-08-06T08:54:02.500Z,23.8
2018-08-06T08:54:50.656Z,23.8
2018-08-06T08:55:42.082Z,23.8
2018-08-06T08:56:32.428Z,23.8
2018-08-06T08:57:22.768Z,23.8
2018-08-06T08:58:12.759Z,23.8
2018-08-06T08:59:03.565Z,23.8
2018-08-06T08:59:51.799Z,23.8
2018-08-06T09:00:42.400Z,23.8
2018-08-06T09:01:32.765Z,23.8
2018-08-06T09:02:22.274Z,23.8
2018-08-06T09:03:12.919Z,23.8
2018-08-06T09:04:03.006Z,23.8
2018-08-06T09:04:53.033Z,23.8
2018-08-06T09:05:43.102Z,23.8
2018-08-06T09:06:33.186Z,23.8
2018-08-06T09:07:24.654Z,23.8
2018-08-06T09:08:12.801Z,23.8
2018-08-06T09:09:02.632Z,23.8
2018-08-06T09:09:53.689Z,23.8
2018-08-06T09:10:43.460Z,23.8
2018-08-06T09:11:33.984Z,23.8
2018-08-06T09:12:23.599Z,23.8
2018-08-06T09:13:13.661Z,23.8
2018-08-06T09:14:04.331Z,23.8
2018-08-06T09:14:54.109Z,23.8
2018-08-06T09:15:43.883Z,23.8
2018-08-06T09:16:33.131Z,23.8
2018-08-06T09:17:24.054Z,23.8
2018-08-06T09:18:13.772Z,23.8
2018-08-06T09:19:03.893Z,23.8
2018-08-06T09:19:53.928Z,23.8
2018-08-06T09:20:44.040Z,23.8
2018-08-06T09:21:34.668Z,23.8
2018-08-06T09:22:24.674Z,23.8
2018-08-06T09:23:13.720Z,23.8
2018-08-06T09:24:04.320Z,23.8
2018-08-06T09:24:54.590Z,23.8
2018-08-06T09:25:44.948Z,23.8
2018-08-06T09:26:34.473Z,23.8
2018-08-06T09:27:24.629Z,23.8
2018-08-06T09:28:13.795Z,23.8
2018-08-06T09:29:04.672Z,23.8
2018-08-06T09:29:55.362Z,23.8
2018-08-06T09:30:45.073Z,23.8
2018-08-06T09:31:35.115Z,23.8
2018-08-06T09:32:25.180Z,23.8
2018-08-06T09:33:14.979Z,23.8
2018-08-06T09:34:06.877Z,23.8
2018-08-06T09:34:55.642Z,23.8
2018-08-06T09:35:45.143Z,23.8
2018-08-06T09:36:35.482Z,23.8
2018-08-06T09:37:25.023Z,23.8
2018-08-06T09:38:15.601Z,23.8
2018-08-06T09:39:05.959Z,23.8
2018-08-06T09:39:56.024Z,23.8
2018-08-06T09:40:46.505Z,23.8
2018-08-06T09:41:35.889Z,23.8
2018-08-06T09:42:26.205Z,23.8
2018-08-06T09:43:16.279Z,23.8
2018-08-06T09:44:06.079Z,23.8
2018-08-06T09:44:56.243Z,23.8
2018-08-06T09:45:45.974Z,23.8
2018-08-06T09:46:36.522Z,23.8
2018-08-06T09:47:26.066Z,23.8
2018-08-06T09:48:16.698Z,23.8
2018-08-06T09:49:06.771Z,23.8
2018-08-06T09:49:56.826Z,23.8
2018-08-06T09:50:46.893Z,23.8
2018-08-06T09:51:36.968Z,23.8
2018-08-06T09:52:26.486Z,23.8
2018-08-06T09:53:16.562Z,23.8
2018-08-06T09:54:06.339Z,23.8
2018-08-06T09:54:56.454Z,23.8
2018-08-06T09:55:47.053Z,23.8
2018-08-06T09:56:37.318Z,23.8
2018-08-06T09:57:26.893Z,23.8
2018-08-06T09:58:16.967Z,23.8
2018-08-06T09:59:07.274Z,23.8
2018-08-06T09:59:57.341Z,23.8
2018-08-06T10:00:47.107Z,23.8
2018-08-06T10:01:37.802Z,23.8
2018-08-06T10:02:27.651Z,23.8
2018-08-06T10:03:17.037Z,23.8
2018-08-06T10:04:07.476Z,23.8
2018-08-06T10:04:56.368Z,23.8
2018-08-06T10:05:48.103Z,23.8
2018-08-06T10:06:42.155Z,23.8
2018-08-06T10:07:27.118Z,23.8
2018-08-06T10:08:18.277Z,23.8
2018-08-06T10:09:07.487Z,23.8
2018-08-06T10:09:58.137Z,23.8
2018-08-06T10:10:48.143Z,23.8
2018-08-06T10:11:38.239Z,23.8
2018-08-06T10:12:28.535Z,23.8
2018-08-06T10:13:18.377Z,23.8
2018-08-06T10:14:08.119Z,23.8
2018-08-06T10:14:58.229Z,23.8
2018-08-06T10:15:48.227Z,23.8
2018-08-06T10:16:38.632Z,23.8
2018-08-06T10:17:29.450Z,23.8
2018-08-06T10:18:19.062Z,23.8
2018-08-06T10:19:10.900Z,23.8
2018-08-06T10:19:58.888Z,23.8
2018-08-06T10:20:48.392Z,23.8
2018-08-06T10:21:38.993Z,23.8
2018-08-06T10:22:29.080Z,23.8
2018-08-06T10:23:18.582Z,23.8
2018-08-06T10:24:09.213Z,23.9
2018-08-06T10:24:59.264Z,23.8
2018-08-06T10:25:49.414Z,23.8
2018-08-06T10:26:38.905Z,23.9
2018-08-06T10:27:29.211Z,23.8
2018-08-06T10:28:19.551Z,23.9
2018-08-06T10:29:08.850Z,23.8
2018-08-06T10:29:59.137Z,23.8
2018-08-06T10:30:49.759Z,23.8
2018-08-06T10:31:39.739Z,23.8
2018-08-06T10:32:30.136Z,23.8
2018-08-06T10:33:19.977Z,23.8
2018-08-06T10:34:10.047Z,23.8
2018-08-06T10:35:00.147Z,23.8
2018-08-06T10:35:50.153Z,23.9
2018-08-06T10:36:39.979Z,23.9
2018-08-06T10:37:29.981Z,23.9
2018-08-06T10:38:20.134Z,23.8
2018-08-06T10:39:09.851Z,23.8
2018-08-06T10:40:00.206Z,23.8
2018-08-06T10:40:50.821Z,23.9
2018-08-06T10:41:40.625Z,23.9
2018-08-06T10:42:30.149Z,23.9
2018-08-06T10:43:20.981Z,23.9
2018-08-06T10:44:09.981Z,23.9
2018-08-06T10:45:00.564Z,23.9
2018-08-06T10:45:50.620Z,23.9
2018-08-06T10:46:40.731Z,23.9
2018-08-06T10:47:31.029Z,23.9
2018-08-06T10:48:21.242Z,23.9
2018-08-06T10:49:10.858Z,23.9
2018-08-06T10:50:01.187Z,23.9
2018-08-06T10:50:51.280Z,23.9
2018-08-06T10:51:41.352Z,23.8
2018-08-06T10:52:31.462Z,23.9
2018-08-06T10:53:21.184Z,23.9
2018-08-06T10:54:11.654Z,23.9
2018-08-06T10:55:01.575Z,23.9
2018-08-06T10:55:51.447Z,23.9
2018-08-06T10:56:41.501Z,23.9
2018-08-06T10:57:31.879Z,23.9
2018-08-06T10:58:21.079Z,23.9
2018-08-06T10:59:11.073Z,23.9
2018-08-06T11:00:02.302Z,23.9
2018-08-06T11:00:52.666Z,23.9
2018-08-06T11:01:41.926Z,23.9
2018-08-06T11:02:32.451Z,23.9
2018-08-06T11:03:22.008Z,23.9
2018-08-06T11:04:12.339Z,23.9
2018-08-06T11:05:02.511Z,23.9
2018-08-06T11:05:51.919Z,23.9
2018-08-06T11:06:44.222Z,23.9
2018-08-06T11:07:32.044Z,23.9
2018-08-06T11:08:22.665Z,23.9
2018-08-06T11:09:12.994Z,23.9
2018-08-06T11:10:01.942Z,23.9
2018-08-06T11:10:52.641Z,23.9
2018-08-06T11:11:42.187Z,23.9
2018-08-06T11:12:32.709Z,23.9
2018-08-06T11:13:22.785Z,23.9
2018-08-06T11:14:13.400Z,23.9
2018-08-06T11:15:03.482Z,23.9
2018-08-06T11:15:52.939Z,23.9
2018-08-06T11:16:43.326Z,23.9
2018-08-06T11:17:33.419Z,23.9
2018-08-06T11:18:23.680Z,23.9
2018-08-06T11:19:13.804Z,23.9
2018-08-06T11:20:03.544Z,23.9
2018-08-06T11:20:53.363Z,23.9
2018-08-06T11:21:43.692Z,23.9
2018-08-06T11:22:33.739Z,23.9
2018-08-06T11:23:23.815Z,23.9
2018-08-06T11:24:13.931Z,23.9
2018-08-06T11:25:04.011Z,23.9
2018-08-06T11:25:54.361Z,23.9
2018-08-06T11:26:43.891Z,23.9
2018-08-06T11:27:33.576Z,23.9
2018-08-06T11:28:24.601Z,23.9
2018-08-06T11:29:14.061Z,23.9
2018-08-06T11:30:04.393Z,23.9
2018-08-06T11:30:53.586Z,23.9
2018-08-06T11:31:44.875Z,23.9
2018-08-06T11:32:34.283Z,23.9
2018-08-06T11:33:24.325Z,23.9
2018-08-06T11:34:14.688Z,23.9
2018-08-06T11:35:05.005Z,23.9
2018-08-06T11:35:55.086Z,23.9
2018-08-06T11:36:45.775Z,23.9
2018-08-06T11:37:34.637Z,23.9
2018-08-06T11:38:25.053Z,23.9
2018-08-06T11:39:15.077Z,23.9
2018-08-06T11:40:05.394Z,23.9
2018-08-06T11:40:54.976Z,23.9
2018-08-06T11:41:44.992Z,23.9
2018-08-06T11:42:34.757Z,23.9
2018-08-06T11:43:25.130Z,23.9
2018-08-06T11:44:15.451Z,23.9
2018-08-06T11:45:05.625Z,23.9
2018-08-06T11:45:55.621Z,23.9
2018-08-06T11:46:44.959Z,23.9
2018-08-06T11:47:36.062Z,23.9
2018-08-06T11:48:26.114Z,23.9
2018-08-06T11:49:14.603Z,23.9
2018-08-06T11:50:05.970Z,23.9
2018-08-06T11:50:55.436Z,23.9
2018-08-06T11:51:45.824Z,23.9
2018-08-06T11:52:35.860Z,23.9
2018-08-06T11:53:25.898Z,23.9
2018-08-06T11:54:15.126Z,23.9
2018-08-06T11:55:06.338Z,23.9
2018-08-06T11:55:56.114Z,23.9
2018-08-06T11:56:49.895Z,23.9
2018-08-06T11:57:35.919Z,23.9
2018-08-06T11:58:26.870Z,23.9
2018-08-06T11:59:16.336Z,23.9
2018-08-06T12:00:06.686Z,23.9
2018-08-06T12:00:56.766Z,23.9
2018-08-06T12:01:47.282Z,23.9
2018-08-06T12:02:36.911Z,23.9
2018-08-06T12:03:27.200Z,23.9
2018-08-06T12:04:16.566Z,23.9
2018-08-06T12:05:07.120Z,23.9
2018-08-06T12:05:56.876Z,23.9
2018-08-06T12:06:47.519Z,23.9
2018-08-06T12:07:37.563Z,23.9
2018-08-06T12:08:27.560Z,23.9
2018-08-06T12:09:17.703Z,23.9
2018-08-06T12:10:06.961Z,23.9
2018-08-06T12:10:57.503Z,23.9
2018-08-06T12:11:47.620Z,23.9
2018-08-06T12:12:37.665Z,23.9
2018-08-06T12:13:27.743Z,23.9
2018-08-06T12:14:17.527Z,23.9
2018-08-06T12:15:08.153Z,23.9
2018-08-06T12:15:57.430Z,23.9
2018-08-06T12:16:47.757Z,23.9
2018-08-06T12:17:38.085Z,23.9
2018-08-06T12:18:27.633Z,23.9
2018-08-06T12:19:17.322Z,23.9
2018-08-06T12:20:08.347Z,23.9
2018-08-06T12:20:58.180Z,23.9
2018-08-06T12:21:47.947Z,23.9
2018-08-06T12:22:38.189Z,23.9
2018-08-06T12:23:28.207Z,23.9
2018-08-06T12:24:18.916Z,23.9
2018-08-06T12:25:09.207Z,23.9
2018-08-06T12:25:59.870Z,23.9
2018-08-06T12:26:48.797Z,23.9
2018-08-06T12:27:38.888Z,23.9
2018-08-06T12:28:29.332Z,23.9
2018-08-06T12:29:18.758Z,23.9
2018-08-06T12:30:09.026Z,23.9
2018-08-06T12:30:59.116Z,23.9
2018-08-06T12:31:49.471Z,23.9
2018-08-06T12:32:39.495Z,23.9
2018-08-06T12:33:29.545Z,23.9
2018-08-06T12:34:19.620Z,23.9
2018-08-06T12:35:09.492Z,23.9
2018-08-06T12:35:59.728Z,23.9
2018-08-06T12:36:49.231Z,23.9
2018-08-06T12:37:39.032Z,23.9
2018-08-06T12:38:29.670Z,23.9
2018-08-06T12:39:19.738Z,23.9
2018-08-06T12:40:10.075Z,23.9
2018-08-06T12:40:59.913Z,23.9
2018-08-06T12:41:49.655Z,23.9
2018-08-06T12:42:40.018Z,23.9
2018-08-06T12:43:29.835Z,23.9
2018-08-06T12:44:20.175Z,23.9
2018-08-06T12:45:09.702Z,23.9
2018-08-06T12:46:00.311Z,23.9
2018-08-06T12:46:49.788Z,23.9
2018-08-06T12:47:40.704Z,23.9
2018-08-06T12:48:29.725Z,23.9
2018-08-06T12:49:20.687Z,23.9
2018-08-06T12:50:10.264Z,23.9
2018-08-06T12:51:00.495Z,23.9
2018-08-06T12:51:51.343Z,23.9
2018-08-06T12:52:39.660Z,23.9
2018-08-06T12:53:30.770Z,24
2018-08-06T12:54:21.377Z,23.9
2018-08-06T12:55:10.816Z,23.9
2018-08-06T12:56:01.170Z,23.9
2018-08-06T12:56:51.450Z,24
2018-08-06T12:57:41.191Z,24
2018-08-06T12:58:30.453Z,24
2018-08-06T12:59:20.799Z,23.9
2018-08-06T13:00:11.633Z,24
2018-08-06T13:01:01.472Z,24
2018-08-06T13:01:51.512Z,24
2018-08-06T13:02:41.571Z,24
2018-08-06T13:03:31.463Z,24
2018-08-06T13:04:22.029Z,24
2018-08-06T13:05:13.119Z,24
2018-08-06T13:06:01.277Z,24
2018-08-06T13:06:51.906Z,23.9
2018-08-06T13:07:41.214Z,24
2018-08-06T13:08:31.512Z,24
2018-08-06T13:09:21.261Z,24
2018-08-06T13:10:11.911Z,23.9
2018-08-06T13:11:01.409Z,24
2018-08-06T13:11:52.018Z,24
2018-08-06T13:12:42.159Z,24
2018-08-06T13:13:32.174Z,24
2018-08-06T13:14:21.928Z,24
2018-08-06T13:15:11.787Z,24
2018-08-06T13:16:02.090Z,24
2018-08-06T13:16:52.958Z,23.9
2018-08-06T13:17:42.184Z,23.9
2018-08-06T13:18:32.610Z,24
2018-08-06T13:19:22.607Z,24
2018-08-06T13:20:12.445Z,24
2018-08-06T13:21:03.110Z,23.9
2018-08-06T13:21:52.852Z,24
2018-08-06T13:22:42.356Z,24
2018-08-06T13:23:33.023Z,24
2018-08-06T13:24:22.191Z,24
2018-08-06T13:25:13.694Z,24
2018-08-06T13:26:03.644Z,24
2018-08-06T13:26:53.156Z,24
2018-08-06T13:27:43.816Z,24
2018-08-06T13:28:33.329Z,24
2018-08-06T13:29:23.659Z,24
2018-08-06T13:30:12.875Z,24
2018-08-06T13:31:03.553Z,24
2018-08-06T13:31:53.599Z,24
2018-08-06T13:32:44.162Z,24
2018-08-06T13:33:33.225Z,24
2018-08-06T13:34:24.397Z,24
2018-08-06T13:35:13.859Z,24
2018-08-06T13:36:04.302Z,24
2018-08-06T13:36:54.834Z,24
2018-08-06T13:37:42.626Z,24
2018-08-06T13:38:34.382Z,24
2018-08-06T13:39:24.425Z,24
2018-08-06T13:40:14.855Z,24
2018-08-06T13:41:04.017Z,24
2018-08-06T13:41:54.402Z,24
2018-08-06T13:42:44.741Z,24
2018-08-06T13:43:35.096Z,24
2018-08-06T13:44:25.489Z,24
2018-08-06T13:45:14.629Z,24
2018-08-06T13:46:05.029Z,24
2018-08-06T13:46:56.227Z,24
2018-08-06T13:47:44.550Z,24
2018-08-06T13:48:35.217Z,24
2018-08-06T13:49:24.979Z,24
2018-08-06T13:50:15.376Z,24
2018-08-06T13:51:03.676Z,24
2018-08-06T13:51:54.910Z,24
2018-08-06T13:52:45.835Z,24
2018-08-06T13:53:35.032Z,24
2018-08-06T13:54:25.396Z,24
2018-08-06T13:55:15.732Z,24
2018-08-06T13:56:06.066Z,24
2018-08-06T13:56:56.103Z,24
2018-08-06T13:57:45.967Z,24
2018-08-06T13:58:35.467Z,24
2018-08-06T13:59:28.467Z,24
2018-08-06T14:00:16.411Z,24
2018-08-06T14:01:05.684Z,24
2018-08-06T14:01:55.986Z,24
2018-08-06T14:02:46.590Z,24
2018-08-06T14:03:35.513Z,24
2018-08-06T14:04:25.569Z,24
2018-08-06T14:05:16.512Z,24
2018-08-06T14:06:06.821Z,24
2018-08-06T14:06:57.136Z,24
2018-08-06T14:07:46.678Z,24
2018-08-06T14:08:36.823Z,24.1
2018-08-06T14:09:26.916Z,24
2018-08-06T14:10:16.630Z,24
2018-08-06T14:11:07.263Z,24.1
2018-08-06T14:11:56.759Z,24
2018-08-06T14:12:47.097Z,24
2018-08-06T14:13:37.103Z,24.1
2018-08-06T14:14:27.179Z,24
2018-08-06T14:15:17.496Z,24.1
2018-08-06T14:16:07.007Z,24.1
2018-08-06T14:16:58.555Z,24
2018-08-06T14:17:47.520Z,24.1
2018-08-06T14:18:37.816Z,24.1
2018-08-06T14:19:27.292Z,24.1
2018-08-06T14:20:17.678Z,24.1
2018-08-06T14:21:07.756Z,24.1
2018-08-06T14:21:57.811Z,24.1
2018-08-06T14:22:47.869Z,24.1
2018-08-06T14:23:37.912Z,24.1
2018-08-06T14:24:27.692Z,24.1
2018-08-06T14:25:17.465Z,24.1
2018-08-06T14:26:08.621Z,24.1
2018-08-06T14:26:58.466Z,24.1
2018-08-06T14:27:48.256Z,24.1
2018-08-06T14:28:37.789Z,24.1
2018-08-06T14:29:28.665Z,24.1
2018-08-06T14:30:18.191Z,24.1
2018-08-06T14:31:08.241Z,24.1
2018-08-06T14:31:58.970Z,24.1
2018-08-06T14:32:48.406Z,24.1
2018-08-06T14:33:39.016Z,24.1
2018-08-06T14:34:29.422Z,24.1
2018-08-06T14:35:18.282Z,24.1
2018-08-06T14:36:08.909Z,24.1
2018-08-06T14:36:58.917Z,24.1
2018-08-06T14:37:48.995Z,24
2018-08-06T14:38:38.786Z,24.1
2018-08-06T14:39:29.124Z,24.1
2018-08-06T14:40:19.204Z,24
2018-08-06T14:41:09.247Z,24
2018-08-06T14:41:59.119Z,24
2018-08-06T14:42:49.653Z,24
2018-08-06T14:43:39.434Z,24
2018-08-06T14:44:29.696Z,24.1
2018-08-06T14:45:19.905Z,24.1
2018-08-06T14:46:09.965Z,24
2018-08-06T14:47:00.000Z,24
2018-08-06T14:47:50.053Z,24
2018-08-06T14:48:39.588Z,24.1
2018-08-06T14:49:30.130Z,24.1
2018-08-06T14:50:19.677Z,24
2018-08-06T14:51:10.322Z,24.1
2018-08-06T14:52:00.791Z,24
2018-08-06T14:52:50.206Z,24.1
2018-08-06T14:53:40.512Z,24.1
2018-08-06T14:54:30.375Z,24.1
2018-08-06T14:55:20.437Z,24.1
2018-08-06T14:56:09.626Z,24.1
2018-08-06T14:57:00.265Z,24.1
2018-08-06T14:57:50.630Z,24
2018-08-06T14:58:40.663Z,24.1
2018-08-06T14:59:31.603Z,24.1
2018-08-06T15:00:20.257Z,24.1
2018-08-06T15:01:10.870Z,24.1
2018-08-06T15:02:00.728Z,24.1
2018-08-06T15:02:51.170Z,24.1
2018-08-06T15:03:40.264Z,24.1
2018-08-06T15:04:31.292Z,24
2018-08-06T15:05:20.926Z,24.1
2018-08-06T15:06:11.319Z,24.1
2018-08-06T15:07:01.185Z,24.1
2018-08-06T15:07:51.366Z,24.1
2018-08-06T15:08:40.871Z,24.1
2018-08-06T15:09:31.727Z,24.1
2018-08-06T15:10:21.400Z,24
2018-08-06T15:11:12.923Z,24
2018-08-06T15:12:00.790Z,24.1
2018-08-06T15:12:51.515Z,24.1
2018-08-06T15:13:42.118Z,24.1
2018-08-06T15:14:32.275Z,24.1
2018-08-06T15:15:23.166Z,24.1
2018-08-06T15:16:12.293Z,24.1
2018-08-06T15:17:02.901Z,24.1
2018-08-06T15:17:52.474Z,24.1
2018-08-06T15:18:41.990Z,24.1
2018-08-06T15:19:32.151Z,24.1
2018-08-06T15:20:22.789Z,24.1
2018-08-06T15:21:11.046Z,24.1
2018-08-06T15:22:02.778Z,24.1
2018-08-06T15:22:52.333Z,24.1
2018-08-06T15:23:42.364Z,24.1
2018-08-06T15:24:33.148Z,24.1
2018-08-06T15:25:22.933Z,24.1
2018-08-06T15:26:12.334Z,24.1
2018-08-06T15:27:02.458Z,24.1
2018-08-06T15:27:53.291Z,24.1
2018-08-06T15:28:42.805Z,24.1
2018-08-06T15:29:33.064Z,24.1
2018-08-06T15:30:23.336Z,24.1
2018-08-06T15:31:13.644Z,24.1
2018-08-06T15:32:03.765Z,24.1
2018-08-06T15:32:52.510Z,24.1
2018-08-06T15:33:42.916Z,24.1
2018-08-06T15:34:33.268Z,24.1
2018-08-06T15:35:23.822Z,24.1
2018-08-06T15:36:13.324Z,24.1
2018-08-06T15:37:03.142Z,24.1
2018-08-06T15:37:53.456Z,24.1
2018-08-06T15:38:43.554Z,24.1
2018-08-06T15:39:33.975Z,24.1
2018-08-06T15:40:23.994Z,24.1
2018-08-06T15:41:14.298Z,24.1
2018-08-06T15:42:03.545Z,24.1
2018-08-06T15:42:53.642Z,24.1
2018-08-06T15:43:43.915Z,24.1
2018-08-06T15:44:34.027Z,24.1
2018-08-06T15:45:23.830Z,24.1
2018-08-06T15:46:14.787Z,24.1
2018-08-06T15:47:03.942Z,24.1
2018-08-06T15:47:54.559Z,24.1
2018-08-06T15:48:44.088Z,24.1
2018-08-06T15:49:34.350Z,24.1
2018-08-06T15:50:24.973Z,24.1
2018-08-06T15:51:15.018Z,24.1
2018-08-06T15:52:05.129Z,24.1
2018-08-06T15:52:54.669Z,24.1
2018-08-06T15:53:45.233Z,24.1
2018-08-06T15:54:34.886Z,24.1
2018-08-06T15:55:25.124Z,24.1
2018-08-06T15:56:14.982Z,24.1
2018-08-06T15:57:05.260Z,24.1
2018-08-06T15:57:55.260Z,24.1
2018-08-06T15:58:44.561Z,24.1
2018-08-06T15:59:35.675Z,24.1
2018-08-06T16:00:25.266Z,24.1
2018-08-06T16:01:15.352Z,24.1
2018-08-06T16:02:05.650Z,24.1
2018-08-06T16:02:55.982Z,24.1
2018-08-06T16:22:39.158Z,24.1
2018-08-06T16:23:29.161Z,24.1
2018-08-06T16:24:18.919Z,24.1
2018-08-06T16:25:09.668Z,24.1
2018-08-06T16:25:58.586Z,24.1
2018-08-06T16:26:49.720Z,24.1
2018-08-06T16:27:39.752Z,24.1
2018-08-06T16:28:29.283Z,24.1
2018-08-06T16:29:19.906Z,24.1
2018-08-06T16:30:09.695Z,24.1
2018-08-06T16:30:59.713Z,24.1
2018-08-06T16:31:48.758Z,24.1
2018-08-06T16:32:40.199Z,24.1
2018-08-06T16:33:29.989Z,24.1
2018-08-06T16:34:19.730Z,24.1
2018-08-06T16:35:10.092Z,24.1
2018-08-06T16:35:59.862Z,24.1
2018-08-06T16:36:49.921Z,24.1
2018-08-06T16:37:39.697Z,24.1
2018-08-06T16:38:28.688Z,24.1
2018-08-06T16:39:20.137Z,24.1
2018-08-06T16:40:10.215Z,24.1
2018-08-06T16:41:00.669Z,24.1
2018-08-06T16:41:50.328Z,24.1
2018-08-06T16:42:40.963Z,24.1
2018-08-06T16:43:30.170Z,24.1
2018-08-06T16:44:20.557Z,24.1